Terminal Aerodrome Forecast
Issued by NWS

Home | Current Version | Previous Version | Text Only | Print | Product List | Glossary On
Versions: 1 2 3 4 5 6 7 8 9 10 11 12 13 14 15 16 17 18 19
000
FTUS44 KMAF 050300 AAB
TAFPEQ
TAF AMD
KPEQ 050316Z 0503/0524 03011KT P6SM SCT015 OVC025
      TEMPO 0503/0506 3SM -SN OVC015
     FM050600 06006KT P6SM OVC015
     FM051200 07006KT P6SM BKN015
     FM051500 08006KT P6SM SCT020
     FM051700 VRB04KT P6SM SKC=

USA.gov is the U.S. government's official web portal to all federal, state and local government web resources and services.